Integrity — WDF4881 — position and weather

sailwx.info

Track history (hours):
 
Tides and Currents Weather Stations Pressure Air Temp Water Temp Dewpoint Dewpoint Depression Visibility Wind Speed Wind Dir Waves Ship Positions

Integrity

Owner: Canal Barge Company, Inc., Belle Chasse, LA. More information available from US FCC via Universal Licensing System and Coast Guard Vessel Documentation Center.

Last reported at 2015-Jan-15 15:34 UTC. Time now 2015-Jan-30 20:03 UTC.
Position N 29°46' W 091°37'.
Warning: this ship's position is 15 days out of date.

Length 19 m; draft 2.8 m.

Type: Towing. MMSI: 367456830.

Date/timePositionNaut miles runAvg speedWind from/ knotsBaromVisibWave heightAir tempDewpointWater temp
2015-Jan-15 15:34N 29°46' W 091°37'7 6.2
2015-Jan-15 14:25N 29°42' W 091°30'4 4.5
2015-Jan-15 13:28N 29°40' W 091°26'5 5.1
2015-Jan-15 12:34N 29°38' W 091°21'6 5.7
2015-Jan-15 11:34N 29°40' W 091°14'4 3.7
2015-Jan-15 10:34N 29°41' W 091°10'4 3.5
2015-Jan-15 09:34N 29°39' W 091°07'4 3.6
2015-Jan-15 08:33N 29°37' W 091°03'4 4.0
2015-Jan-15 07:28N 29°36' W 090°59'4 4.8
2015-Jan-15 06:34N 29°33' W 090°55'49 1.7
2015-Jan-14 02:14N 29°55' W 090°04'0 0.0
2015-Jan-14 01:30N 29°55' W 090°04'0 0.0
2015-Jan-14 00:23N 29°55' W 090°04'0 0.0
2015-Jan-13 23:07N 29°55' W 090°04'0 0.0
2015-Jan-13 22:30N 29°55' W 090°04'0 0.0
2015-Jan-13 21:27N 29°55' W 090°04'0 0.0
2015-Jan-13 20:29N 29°55' W 090°04'0 0.0
2015-Jan-13 19:32N 29°55' W 090°04'0 0.0
2015-Jan-13 18:26N 29°55' W 090°04'0 0.0
2015-Jan-13 17:33N 29°55' W 090°04'0 0.0
2015-Jan-13 16:32N 29°55' W 090°04'0 0.0
2015-Jan-13 15:33N 29°55' W 090°04'0 0.0
2015-Jan-13 14:29N 29°55' W 090°04'0 0.0
2015-Jan-13 13:33N 29°55' W 090°04'0 0.0
2015-Jan-13 12:34N 29°55' W 090°04'0 0.0
2015-Jan-13 11:31N 29°55' W 090°04'0 0.3
2015-Jan-13 10:33N 29°55' W 090°04'  
2015-Jan-08 15:33N 29°35' W 090°58'5 5.2
2015-Jan-08 14:32N 29°37' W 091°03'4 4.4
2015-Jan-08 13:34N 29°39' W 091°08'4 3.6
2015-Jan-08 12:34N 29°41' W 091°11'5 4.8
2015-Jan-08 11:34N 29°39' W 091°16'  
Track history (hours):
 
Tides and Currents Weather Stations Pressure Air Temp Water Temp Dewpoint Dewpoint Depression Visibility Wind Speed Wind Dir Waves Ship Positions

Integrity

Owner: Canal Barge Company, Inc., Belle Chasse, LA. More information available from US FCC via Universal Licensing System and Coast Guard Vessel Documentation Center.

Last reported at 2015-Jan-15 15:34 UTC. Time now 2015-Jan-30 20:03 UTC.
Position N 29°46' W 091°37'.
Warning: this ship's position is 15 days out of date.

Length 19 m; draft 2.8 m.

Type: Towing. MMSI: 367456830.

Date/timePositionNaut miles runAvg speedWind from/ knotsBaromVisibWave heightAir tempDewpointWater temp
2015-Jan-15 15:34N 29°46' W 091°37'7 6.2
2015-Jan-15 14:25N 29°42' W 091°30'4 4.5
2015-Jan-15 13:28N 29°40' W 091°26'5 5.1
2015-Jan-15 12:34N 29°38' W 091°21'6 5.7
2015-Jan-15 11:34N 29°40' W 091°14'4 3.7
2015-Jan-15 10:34N 29°41' W 091°10'4 3.5
2015-Jan-15 09:34N 29°39' W 091°07'4 3.6
2015-Jan-15 08:33N 29°37' W 091°03'4 4.0
2015-Jan-15 07:28N 29°36' W 090°59'4 4.8
2015-Jan-15 06:34N 29°33' W 090°55'49 1.7
2015-Jan-14 02:14N 29°55' W 090°04'0 0.0
2015-Jan-14 01:30N 29°55' W 090°04'0 0.0
2015-Jan-14 00:23N 29°55' W 090°04'0 0.0
2015-Jan-13 23:07N 29°55' W 090°04'0 0.0
2015-Jan-13 22:30N 29°55' W 090°04'0 0.0
2015-Jan-13 21:27N 29°55' W 090°04'0 0.0
2015-Jan-13 20:29N 29°55' W 090°04'0 0.0
2015-Jan-13 19:32N 29°55' W 090°04'0 0.0
2015-Jan-13 18:26N 29°55' W 090°04'0 0.0
2015-Jan-13 17:33N 29°55' W 090°04'0 0.0
2015-Jan-13 16:32N 29°55' W 090°04'0 0.0
2015-Jan-13 15:33N 29°55' W 090°04'0 0.0
2015-Jan-13 14:29N 29°55' W 090°04'0 0.0
2015-Jan-13 13:33N 29°55' W 090°04'0 0.0
2015-Jan-13 12:34N 29°55' W 090°04'0 0.0
2015-Jan-13 11:31N 29°55' W 090°04'0 0.3
2015-Jan-13 10:33N 29°55' W 090°04'  
2015-Jan-08 15:33N 29°35' W 090°58'5 5.2
2015-Jan-08 14:32N 29°37' W 091°03'4 4.4
2015-Jan-08 13:34N 29°39' W 091°08'4 3.6
2015-Jan-08 12:34N 29°41' W 091°11'5 4.8
2015-Jan-08 11:34N 29°39' W 091°16'  

Dump ship's entire track history